Time;durP1;ratioP1;P1;durP2;ratioP2;P2;SDS_P1;SDS_P2;PMS_P1;PMS_P2;Temp;Humidity;BMP_temperature;BMP_pressure;BME280_temperature;BME280_humidity;BME280_pressure;Samples;Min_cycle;Max_cycle;Signal;HPM_P1;HPM_P2
2021/11/24 00:00:17;;;;;;;1.25;0.43;;;21.70;39.70;;;;;;5018961;28;20077;-56
2021/11/24 00:02:43;;;;;;;0.68;0.60;;;21.70;39.70;;;;;;5015400;28;20029;-55
2021/11/24 00:05:09;;;;;;;0.68;0.57;;;21.70;39.70;;;;;;5023847;28;20116;-51
2021/11/24 00:07:35;;;;;;;1.05;0.45;;;21.70;39.70;;;;;;5024515;28;20069;-53
2021/11/24 00:10:01;;;;;;;0.50;0.40;;;21.70;39.70;;;;;;5016084;28;20065;-56
2021/11/24 00:12:27;;;;;;;0.80;0.40;;;21.70;39.70;;;;;;5019590;28;20334;-53
2021/11/24 00:14:53;;;;;;;0.95;0.50;;;21.70;39.70;;;;;;5017908;28;20034;-54
2021/11/24 00:17:19;;;;;;;0.70;0.57;;;21.70;39.70;;;;;;5022485;28;20028;-55
2021/11/24 00:19:45;;;;;;;0.80;0.40;;;21.70;39.70;;;;;;5025802;28;20022;-55
2021/11/24 00:22:10;;;;;;;0.70;0.50;;;21.70;39.70;;;;;;5028560;28;20109;-55
2021/11/24 00:24:36;;;;;;;0.50;0.50;;;21.70;39.70;;;;;;5029078;28;20072;-50
2021/11/24 00:27:02;;;;;;;0.57;0.40;;;21.70;39.70;;;;;;5028746;28;20113;-56
2021/11/24 00:29:28;;;;;;;0.60;0.40;;;21.70;39.70;;;;;;5026948;28;20349;-54
2021/11/24 00:31:53;;;;;;;0.70;0.40;;;21.70;39.60;;;;;;5021899;28;20123;-51
2021/11/24 00:34:19;;;;;;;0.57;0.40;;;21.60;39.60;;;;;;5024152;28;20041;-56
2021/11/24 00:36:45;;;;;;;0.70;0.40;;;21.60;39.50;;;;;;5017324;28;20044;-54
2021/11/24 00:39:11;;;;;;;0.73;0.50;;;21.70;39.50;;;;;;5021319;28;20048;-55
2021/11/24 00:41:37;;;;;;;0.70;0.52;;;21.60;39.40;;;;;;5016876;28;20037;-56
2021/11/24 00:44:02;;;;;;;0.80;0.50;;;21.60;39.50;;;;;;5026403;28;20033;-52
2021/11/24 00:46:28;;;;;;;1.05;0.60;;;21.60;39.40;;;;;;5033635;28;20038;-54
2021/11/24 00:48:54;;;;;;;0.82;0.60;;;21.60;39.50;;;;;;5031674;28;20025;-56
2021/11/24 00:51:20;;;;;;;0.90;0.60;;;21.60;39.40;;;;;;5021759;28;20061;-51
2021/11/24 00:53:45;;;;;;;1.02;0.68;;;21.60;39.50;;;;;;5027885;28;20029;-54
2021/11/24 00:56:11;;;;;;;0.93;0.60;;;21.60;39.40;;;;;;5037042;28;20599;-56
2021/11/24 00:58:37;;;;;;;1.05;0.60;;;21.60;39.50;;;;;;5021953;28;20404;-54
2021/11/24 01:01:03;;;;;;;1.65;0.80;;;21.60;39.40;;;;;;5036120;28;20055;-55
2021/11/24 01:03:29;;;;;;;1.25;0.55;;;21.60;39.40;;;;;;5024690;28;20029;-53
2021/11/24 01:05:55;;;;;;;0.95;0.75;;;21.60;39.40;;;;;;5033566;28;20381;-53
2021/11/24 01:08:22;;;;;;;0.90;0.38;;;21.60;39.40;;;;;;5027986;28;20066;-50
2021/11/24 01:10:47;;;;;;;0.95;0.55;;;21.60;39.40;;;;;;5035702;28;20055;-51
2021/11/24 01:13:15;;;;;;;1.13;0.50;;;21.60;39.40;;;;;;5030929;28;20067;-57
2021/11/24 01:15:41;;;;;;;0.40;0.40;;;21.50;39.30;;;;;;5020645;28;20091;-54
2021/11/24 01:18:07;;;;;;;0.40;0.30;;;21.50;39.30;;;;;;5025090;28;20466;-52
2021/11/24 01:20:33;;;;;;;1.77;0.40;;;21.50;39.20;;;;;;5026177;28;20059;-54
2021/11/24 01:22:59;;;;;;;0.40;0.40;;;21.50;39.20;;;;;;5020827;28;20092;-51
2021/11/24 01:25:26;;;;;;;0.73;0.35;;;21.50;39.20;;;;;;5037690;28;20041;-55
2021/11/24 01:27:52;;;;;;;0.98;0.70;;;21.50;39.20;;;;;;5031004;28;20043;-52
2021/11/24 01:30:18;;;;;;;1.00;0.50;;;21.50;39.20;;;;;;5037528;28;20123;-54
2021/11/24 01:32:44;;;;;;;0.52;0.50;;;21.50;39.20;;;;;;5030869;28;20048;-52
2021/11/24 01:35:11;;;;;;;0.35;0.30;;;21.50;39.20;;;;;;5032416;28;20017;-50
2021/11/24 01:37:36;;;;;;;0.80;0.47;;;21.50;39.20;;;;;;5028208;28;20549;-56
2021/11/24 01:40:04;;;;;;;0.52;0.40;;;21.50;39.20;;;;;;5017359;28;20053;-54
2021/11/24 01:42:30;;;;;;;1.88;0.40;;;21.50;39.10;;;;;;5027474;28;20045;-51
2021/11/24 01:44:56;;;;;;;0.82;0.50;;;21.50;39.10;;;;;;5026185;28;20033;-54
2021/11/24 01:47:22;;;;;;;0.52;0.40;;;21.50;39.20;;;;;;5025773;28;20071;-50
2021/11/24 01:49:48;;;;;;;0.60;0.50;;;21.50;39.80;;;;;;5020755;28;20125;-53
2021/11/24 01:52:15;;;;;;;0.63;0.43;;;21.50;39.20;;;;;;5022261;28;20040;-53
2021/11/24 01:54:41;;;;;;;1.08;0.50;;;21.50;39.20;;;;;;5028740;28;20022;-56
2021/11/24 01:57:08;;;;;;;0.52;0.50;;;21.50;39.20;;;;;;5028904;28;20060;-55
2021/11/24 01:59:34;;;;;;;0.50;0.40;;;21.40;39.10;;;;;;5023446;28;20029;-53
2021/11/24 02:02:00;;;;;;;0.73;0.40;;;21.40;39.00;;;;;;5025878;28;20112;-51
2021/11/24 02:04:26;;;;;;;0.30;0.30;;;21.40;39.00;;;;;;5016968;28;20033;-57
2021/11/24 02:06:51;;;;;;;0.30;0.30;;;21.50;39.00;;;;;;5025616;28;20457;-50
2021/11/24 02:09:19;;;;;;;0.68;0.45;;;21.40;39.00;;;;;;5027224;28;20036;-54
2021/11/24 02:11:46;;;;;;;0.40;0.30;;;21.40;39.00;;;;;;5021775;28;20357;-53
2021/11/24 02:14:13;;;;;;;0.85;0.40;;;21.40;39.00;;;;;;5018384;28;20029;-56
2021/11/24 02:16:51;;;;;;;0.40;0.40;;;21.40;38.90;;;;;;5020128;28;20036;-51
2021/11/24 02:19:17;;;;;;;0.40;0.40;;;21.40;38.90;;;;;;5021382;28;20120;-53
2021/11/24 02:21:52;;;;;;;0.82;0.73;;;21.40;38.90;;;;;;5022267;28;20033;-55
2021/11/24 02:24:18;;;;;;;;;;;21.40;38.90;;;;;;5027363;28;20560;-50
2021/11/24 02:26:44;;;;;;;0.60;0.60;;;21.40;39.00;;;;;;5020627;28;19975;-57
2021/11/24 02:29:10;;;;;;;0.45;0.45;;;21.40;39.00;;;;;;5027207;28;20120;-57
2021/11/24 02:31:36;;;;;;;0.80;0.75;;;21.40;38.90;;;;;;5033407;28;20037;-52
2021/11/24 02:34:02;;;;;;;0.50;0.40;;;21.40;38.90;;;;;;5031521;28;20365;-53
2021/11/24 02:36:29;;;;;;;0.57;0.50;;;21.40;38.90;;;;;;5017166;28;20034;-54
2021/11/24 02:38:55;;;;;;;0.63;0.50;;;21.40;38.80;;;;;;5033329;28;20520;-54
2021/11/24 02:41:22;;;;;;;0.43;0.30;;;21.40;38.80;;;;;;5029158;28;20037;-52
2021/11/24 02:43:48;;;;;;;0.70;0.47;;;21.40;38.80;;;;;;5023171;28;20053;-55
2021/11/24 02:46:13;;;;;;;0.52;0.50;;;21.40;38.80;;;;;;5018340;28;20065;-52
2021/11/24 02:48:40;;;;;;;0.70;0.50;;;21.40;38.80;;;;;;5025813;28;20461;-51
2021/11/24 02:51:06;;;;;;;0.50;0.50;;;21.30;38.70;;;;;;5028824;28;20080;-54
2021/11/24 02:53:33;;;;;;;1.30;0.60;;;21.40;38.70;;;;;;5034221;28;20108;-51
2021/11/24 02:56:00;;;;;;;0.50;0.40;;;21.30;38.70;;;;;;5020290;28;20091;-55
2021/11/24 02:58:26;;;;;;;0.80;0.50;;;21.40;38.70;;;;;;5030974;28;20060;-55
2021/11/24 03:00:53;;;;;;;0.70;0.60;;;21.40;38.70;;;;;;5032887;28;20142;-55
2021/11/24 03:03:19;;;;;;;0.70;0.60;;;21.30;38.60;;;;;;5015809;28;20057;-50
2021/11/24 03:05:45;;;;;;;0.50;0.50;;;21.30;38.60;;;;;;5016484;28;20112;-57
2021/11/24 03:08:11;;;;;;;0.40;0.40;;;21.30;38.60;;;;;;5028486;28;20108;-55
2021/11/24 03:10:37;;;;;;;1.13;0.60;;;21.30;38.60;;;;;;5016936;28;20037;-52
2021/11/24 03:13:04;;;;;;;0.50;0.40;;;21.30;38.60;;;;;;5034797;28;20030;-51
2021/11/24 03:15:30;;;;;;;0.30;0.30;;;21.30;38.60;;;;;;5029818;28;20025;-50
2021/11/24 03:17:57;;;;;;;0.75;0.43;;;21.30;38.70;;;;;;5022929;28;20113;-53
2021/11/24 03:20:25;;;;;;;0.50;0.50;;;21.30;38.60;;;;;;5029479;28;20033;-51
2021/11/24 03:22:55;;;;;;;0.43;0.43;;;21.30;38.60;;;;;;5017647;28;20061;-52
2021/11/24 03:25:21;;;;;;;0.40;0.30;;;21.30;38.60;;;;;;5030784;28;20038;-52
2021/11/24 03:27:47;;;;;;;0.40;0.40;;;21.30;38.60;;;;;;5029678;28;20049;-55
2021/11/24 03:30:15;;;;;;;0.40;0.40;;;21.30;38.60;;;;;;5028835;28;20072;-53
2021/11/24 03:32:41;;;;;;;0.88;0.40;;;21.30;38.50;;;;;;5022334;28;20065;-55
2021/11/24 03:35:08;;;;;;;0.40;0.40;;;21.30;38.50;;;;;;5023658;28;20037;-54
2021/11/24 03:37:35;;;;;;;0.40;0.32;;;21.20;38.40;;;;;;5029050;28;20400;-49
2021/11/24 03:40:03;;;;;;;0.28;0.25;;;21.30;38.40;;;;;;5022281;28;20128;-52
2021/11/24 03:42:30;;;;;;;0.43;0.25;;;21.30;38.40;;;;;;5019041;28;20073;-51
2021/11/24 03:44:56;;;;;;;0.60;0.50;;;21.30;38.40;;;;;;5023304;28;20037;-55
2021/11/24 03:47:21;;;;;;;0.40;0.40;;;21.30;38.40;;;;;;5023450;28;20030;-53
2021/11/24 03:49:47;;;;;;;0.22;0.22;;;21.20;38.40;;;;;;5022132;28;20087;-52
2021/11/24 03:52:14;;;;;;;0.30;0.30;;;21.20;38.40;;;;;;5029940;28;20113;-52
2021/11/24 03:54:40;;;;;;;0.50;0.30;;;21.20;38.40;;;;;;5027495;28;20371;-51
2021/11/24 03:57:06;;;;;;;0.20;0.20;;;21.20;38.40;;;;;;5025945;28;20049;-48
2021/11/24 03:59:31;;;;;;;0.30;0.30;;;21.20;38.40;;;;;;5028626;28;20432;-54
2021/11/24 04:01:57;;;;;;;0.40;0.28;;;21.20;39.00;;;;;;5022905;28;20508;-58
2021/11/24 04:04:23;;;;;;;0.73;0.40;;;21.20;38.30;;;;;;5018502;28;20032;-51
2021/11/24 04:06:49;;;;;;;0.25;0.20;;;21.20;38.30;;;;;;5027272;28;20040;-55
2021/11/24 04:09:14;;;;;;;0.40;0.35;;;21.20;38.30;;;;;;5028138;28;20461;-53
2021/11/24 04:11:40;;;;;;;0.73;0.47;;;21.20;38.30;;;;;;5033095;28;20044;-48
2021/11/24 04:14:06;;;;;;;0.47;0.30;;;21.20;38.30;;;;;;5030201;28;20034;-58
2021/11/24 04:16:32;;;;;;;0.43;0.40;;;21.20;38.30;;;;;;5029550;28;20513;-52
2021/11/24 04:19:00;;;;;;;2.22;0.35;;;21.20;38.30;;;;;;5036008;28;20355;-52
2021/11/24 04:21:26;;;;;;;0.30;0.30;;;21.20;38.30;;;;;;5033578;28;20038;-52
2021/11/24 04:23:52;;;;;;;0.55;0.40;;;21.20;38.30;;;;;;5022335;28;20044;-53
2021/11/24 04:26:18;;;;;;;0.55;0.45;;;21.20;38.30;;;;;;5033991;28;20108;-54
2021/11/24 04:28:44;;;;;;;0.38;0.38;;;21.20;38.30;;;;;;5023038;28;20112;-49
2021/11/24 04:31:10;;;;;;;0.73;0.32;;;21.20;38.40;;;;;;5033268;28;20045;-51
2021/11/24 04:33:37;;;;;;;0.68;0.47;;;21.20;38.40;;;;;;5025981;28;20394;-54
2021/11/24 04:36:04;;;;;;;1.05;0.40;;;21.20;38.40;;;;;;5025572;28;20034;-53
2021/11/24 04:38:30;;;;;;;0.32;0.28;;;21.20;38.30;;;;;;5030540;28;20030;-54
2021/11/24 04:40:56;;;;;;;0.38;0.38;;;21.20;38.30;;;;;;5027963;28;20353;-54
2021/11/24 04:43:27;;;;;;;0.40;0.30;;;21.20;38.30;;;;;;5031830;28;20029;-55
2021/11/24 04:45:53;;;;;;;0.20;0.20;;;21.20;38.40;;;;;;5026126;28;20057;-52
2021/11/24 04:48:18;;;;;;;0.43;0.43;;;21.20;38.30;;;;;;5030921;28;20029;-52
2021/11/24 04:50:44;;;;;;;0.40;0.40;;;21.20;38.30;;;;;;5034361;28;20037;-53
2021/11/24 04:53:10;;;;;;;0.50;0.30;;;21.20;38.30;;;;;;5039371;28;20033;-49
2021/11/24 04:55:36;;;;;;;0.40;0.35;;;21.10;38.20;;;;;;5032989;28;20029;-48
2021/11/24 04:58:01;;;;;;;0.40;0.30;;;21.10;38.20;;;;;;5031550;28;20025;-49
2021/11/24 05:00:27;;;;;;;0.43;0.25;;;21.10;38.20;;;;;;5035404;28;20376;-53
2021/11/24 05:02:53;;;;;;;0.20;0.20;;;21.10;38.20;;;;;;5026030;28;20064;-53
2021/11/24 05:05:29;;;;;;;0.45;0.20;;;21.10;38.20;;;;;;5025953;28;20041;-57
2021/11/24 05:07:59;;;;;;;0.30;0.20;;;21.10;38.20;;;;;;5034132;28;20041;-53
2021/11/24 05:10:26;;;;;;;0.45;0.30;;;21.10;38.20;;;;;;5033219;28;20104;-51
2021/11/24 05:12:52;;;;;;;0.55;0.25;;;21.10;38.20;;;;;;5035208;28;20025;-51
2021/11/24 05:15:27;;;;;;;0.20;0.20;;;21.10;38.20;;;;;;5025977;28;20104;-54
2021/11/24 05:18:03;;;;;;;0.25;0.25;;;21.10;38.20;;;;;;5022010;28;20044;-52
2021/11/24 05:20:31;;;;;;;0.38;0.30;;;21.20;38.20;;;;;;5022810;28;20443;-56
2021/11/24 05:23:00;;;;;;;0.20;0.10;;;21.10;38.20;;;;;;5021214;28;21471;-52
2021/11/24 05:25:27;;;;;;;0.30;0.30;;;21.10;38.20;;;;;;5024922;28;20117;-51
2021/11/24 05:27:54;;;;;;;0.93;0.20;;;21.10;38.20;;;;;;5019312;28;20119;-51
2021/11/24 05:30:20;;;;;;;0.28;0.20;;;21.10;38.20;;;;;;5030060;28;20403;-51
2021/11/24 05:32:46;;;;;;;0.28;0.20;;;21.10;38.20;;;;;;5023319;28;20417;-50
2021/11/24 05:35:11;;;;;;;0.30;0.28;;;21.10;38.20;;;;;;5020705;28;20116;-52
2021/11/24 05:37:37;;;;;;;0.15;0.15;;;21.10;38.20;;;;;;5031756;28;20109;-52
2021/11/24 05:40:04;;;;;;;0.30;0.25;;;21.10;38.30;;;;;;5025856;28;20025;-48
2021/11/24 05:42:30;;;;;;;0.68;0.30;;;21.10;38.30;;;;;;5024338;28;20441;-52
2021/11/24 05:45:03;;;;;;;0.32;0.32;;;21.10;38.30;;;;;;5021907;28;20084;-50
2021/11/24 05:50:15;;;;;;;0.40;0.40;;;21.10;38.30;;;;;;5026614;28;20048;-52
2021/11/24 05:52:41;;;;;;;0.73;0.40;;;21.10;38.40;;;;;;5023662;28;20032;-50
2021/11/24 05:55:07;;;;;;;0.70;0.40;;;21.10;38.40;;;;;;5023037;28;20038;-52
2021/11/24 05:57:32;;;;;;;0.77;0.50;;;21.10;38.40;;;;;;5026543;28;20049;-49
2021/11/24 05:59:58;;;;;;;0.47;0.35;;;21.10;38.40;;;;;;5024732;28;20022;-51
2021/11/24 06:02:24;;;;;;;0.43;0.40;;;21.10;38.40;;;;;;5022012;28;20104;-54
2021/11/24 06:04:50;;;;;;;0.50;0.40;;;21.10;38.40;;;;;;5034112;28;20413;-52
2021/11/24 06:07:15;;;;;;;0.50;0.45;;;21.10;38.40;;;;;;5032167;28;20057;-55
2021/11/24 06:09:41;;;;;;;0.60;0.45;;;21.10;38.40;;;;;;5027162;28;20025;-53
2021/11/24 06:12:07;;;;;;;0.50;0.50;;;21.10;38.40;;;;;;5019232;28;20049;-52
2021/11/24 06:14:33;;;;;;;0.45;0.30;;;21.10;38.40;;;;;;5024277;28;20112;-55
2021/11/24 06:16:59;;;;;;;0.38;0.38;;;21.00;38.40;;;;;;5024741;28;20067;-51
2021/11/24 06:19:25;;;;;;;0.30;0.30;;;21.00;38.40;;;;;;5027712;28;20029;-54
2021/11/24 06:21:50;;;;;;;0.68;0.40;;;21.00;38.40;;;;;;5026498;28;20029;-53
2021/11/24 06:24:16;;;;;;;1.38;0.43;;;21.00;38.40;;;;;;5017751;28;20072;-51
2021/11/24 06:26:43;;;;;;;3.25;0.30;;;21.00;38.50;;;;;;5018549;28;20030;-54
2021/11/24 06:29:08;;;;;;;0.43;0.43;;;21.00;38.50;;;;;;5021114;28;20045;-51
2021/11/24 06:31:35;;;;;;;0.40;0.40;;;21.00;38.50;;;;;;5022149;28;20037;-54
2021/11/24 06:34:01;;;;;;;1.67;0.50;;;21.00;38.50;;;;;;5022280;28;20063;-50
2021/11/24 06:36:27;;;;;;;0.85;0.50;;;21.00;38.50;;;;;;5024976;28;20181;-51
2021/11/24 06:38:53;;;;;;;0.30;0.30;;;21.00;38.60;;;;;;5035260;28;20175;-53
2021/11/24 06:41:19;;;;;;;0.47;0.40;;;21.00;38.60;;;;;;5023257;28;20053;-50
2021/11/24 06:43:45;;;;;;;0.70;0.60;;;21.00;38.60;;;;;;5020266;28;20126;-51
2021/11/24 06:46:10;;;;;;;0.47;0.43;;;21.00;38.60;;;;;;5022363;28;20026;-53
2021/11/24 06:48:36;;;;;;;0.43;0.43;;;21.00;38.60;;;;;;5016732;28;20045;-54
2021/11/24 06:51:02;;;;;;;0.43;0.43;;;21.00;38.60;;;;;;5019188;28;20033;-54
2021/11/24 06:53:28;;;;;;;0.70;0.60;;;21.00;38.70;;;;;;5029852;28;20040;-49
2021/11/24 06:55:54;;;;;;;0.43;0.40;;;21.00;38.60;;;;;;5022219;28;21161;-51
2021/11/24 06:58:20;;;;;;;0.65;0.50;;;21.00;38.70;;;;;;5016447;28;20080;-50
2021/11/24 07:00:47;;;;;;;0.40;0.40;;;21.00;38.70;;;;;;5024140;28;20034;-50
2021/11/24 07:03:12;;;;;;;0.52;0.50;;;21.00;38.60;;;;;;5024059;28;20034;-50
2021/11/24 07:05:39;;;;;;;0.47;0.40;;;21.00;38.60;;;;;;5019554;28;20069;-50
2021/11/24 07:08:05;;;;;;;0.38;0.38;;;21.00;38.60;;;;;;5022392;28;20062;-55
2021/11/24 07:10:32;;;;;;;0.68;0.60;;;21.00;38.70;;;;;;5017946;28;20552;-55
2021/11/24 07:12:59;;;;;;;0.40;0.40;;;21.00;38.70;;;;;;5032933;28;20048;-53
2021/11/24 07:15:26;;;;;;;0.43;0.43;;;21.00;38.70;;;;;;5021888;28;20025;-54
2021/11/24 07:17:52;;;;;;;0.50;0.40;;;21.00;38.70;;;;;;5030775;28;20021;-55
2021/11/24 07:20:21;;;;;;;1.02;0.40;;;21.00;38.70;;;;;;5035048;28;20045;-54
2021/11/24 07:22:47;;;;;;;0.32;0.32;;;20.90;38.70;;;;;;5020627;28;20030;-47
2021/11/24 07:25:13;;;;;;;0.40;0.40;;;20.90;38.70;;;;;;5015496;28;20044;-56
2021/11/24 07:27:39;;;;;;;0.93;0.43;;;21.00;38.70;;;;;;5028522;28;20340;-54
2021/11/24 07:30:07;;;;;;;0.63;0.40;;;20.90;38.70;;;;;;5031804;28;20033;-55
2021/11/24 07:32:35;;;;;;;1.13;0.50;;;21.00;38.80;;;;;;5023879;28;20048;-52
2021/11/24 07:35:02;;;;;;;1.00;0.68;;;21.00;38.80;;;;;;5025785;28;20026;-54
2021/11/24 07:37:28;;;;;;;2.78;1.35;;;20.90;38.80;;;;;;5018539;28;20044;-56
2021/11/24 07:39:54;;;;;;;1.00;0.73;;;20.90;38.80;;;;;;5023909;28;20026;-52
2021/11/24 07:42:19;;;;;;;1.88;0.68;;;21.00;38.90;;;;;;5026504;28;20022;-49
2021/11/24 07:44:45;;;;;;;1.23;0.73;;;21.00;38.80;;;;;;5021562;28;20034;-48
2021/11/24 07:47:12;;;;;;;1.80;0.80;;;21.00;38.90;;;;;;5024298;28;20029;-54
2021/11/24 07:49:38;;;;;;;0.88;0.77;;;21.00;38.80;;;;;;5018041;28;20037;-51
2021/11/24 07:52:05;;;;;;;1.45;0.70;;;21.00;38.80;;;;;;5020632;28;20037;-56
2021/11/24 07:54:31;;;;;;;1.13;0.73;;;21.00;38.80;;;;;;5025833;28;20030;-52
2021/11/24 07:56:57;;;;;;;1.17;0.68;;;21.00;38.70;;;;;;5019761;28;20045;-55
2021/11/24 07:59:23;;;;;;;0.95;0.70;;;21.00;38.70;;;;;;5019819;28;20041;-54
2021/11/24 08:01:49;;;;;;;0.73;0.55;;;21.10;38.60;;;;;;5018223;28;20033;-50
2021/11/24 08:04:15;;;;;;;2.92;0.77;;;21.20;38.60;;;;;;5025191;28;20395;-51
2021/11/24 08:06:42;;;;;;;0.75;0.70;;;21.20;38.50;;;;;;5022126;28;20102;-52
2021/11/24 08:09:07;;;;;;;0.75;0.70;;;21.30;38.40;;;;;;5022529;28;20132;-53
2021/11/24 08:11:33;;;;;;;1.80;0.68;;;21.40;38.40;;;;;;5017514;28;20496;-51
2021/11/24 08:13:59;;;;;;;1.23;0.70;;;21.50;38.20;;;;;;5020865;28;20049;-49
2021/11/24 08:16:25;;;;;;;2.20;0.80;;;21.60;38.20;;;;;;5021607;28;20105;-54
2021/11/24 08:18:50;;;;;;;0.60;0.45;;;21.70;38.10;;;;;;5022804;28;20433;-50
2021/11/24 08:21:16;;;;;;;1.23;0.60;;;21.70;38.00;;;;;;5021566;28;20485;-53
2021/11/24 08:23:42;;;;;;;0.73;0.70;;;21.80;37.90;;;;;;5025665;28;20041;-51
2021/11/24 08:26:08;;;;;;;0.95;0.55;;;21.90;37.90;;;;;;5019553;28;20038;-51
2021/11/24 08:28:33;;;;;;;1.30;0.60;;;21.90;37.80;;;;;;5019520;28;20022;-52
2021/11/24 08:30:59;;;;;;;0.80;0.68;;;22.00;37.80;;;;;;5021342;28;20046;-52
2021/11/24 08:33:25;;;;;;;0.90;0.60;;;22.10;38.40;;;;;;5027185;28;20057;-49
2021/11/24 08:35:51;;;;;;;1.13;0.77;;;22.10;37.70;;;;;;5018979;28;20026;-52
2021/11/24 08:38:17;;;;;;;1.00;0.70;;;22.20;37.60;;;;;;5024127;28;20045;-54
2021/11/24 08:40:43;;;;;;;0.93;0.75;;;22.30;37.60;;;;;;5022219;28;20049;-52
2021/11/24 08:43:09;;;;;;;0.85;0.65;;;22.30;37.50;;;;;;5021104;28;20030;-48
2021/11/24 08:45:36;;;;;;;0.70;0.60;;;22.40;37.50;;;;;;5017917;28;20018;-53
2021/11/24 08:48:04;;;;;;;1.55;0.90;;;22.40;37.50;;;;;;5024020;28;20057;-50
2021/11/24 08:50:30;;;;;;;1.88;0.90;;;22.50;37.50;;;;;;5025994;28;20044;-52
2021/11/24 08:52:56;;;;;;;1.75;1.00;;;22.60;37.50;;;;;;5021222;28;20029;-54
2021/11/24 08:55:22;;;;;;;0.88;0.77;;;22.50;37.40;;;;;;5023249;28;20085;-52
2021/11/24 08:57:48;;;;;;;2.30;1.08;;;22.60;37.40;;;;;;5018481;28;20049;-52
2021/11/24 09:00:17;;;;;;;1.60;1.00;;;22.60;37.40;;;;;;5021243;28;20033;-50
2021/11/24 09:02:44;;;;;;;0.82;0.70;;;22.70;37.40;;;;;;5033417;28;20053;-53
2021/11/24 09:05:12;;;;;;;1.73;0.88;;;22.70;37.30;;;;;;5020373;28;20087;-52
2021/11/24 09:07:39;;;;;;;1.00;0.77;;;22.70;37.30;;;;;;5017870;28;20041;-52
2021/11/24 09:10:06;;;;;;;0.73;0.60;;;22.70;37.30;;;;;;5022277;28;20022;-53
2021/11/24 09:12:32;;;;;;;2.03;0.80;;;22.80;37.30;;;;;;5020897;28;20042;-50
2021/11/24 09:14:58;;;;;;;1.20;0.80;;;22.80;37.20;;;;;;5023683;28;20026;-54
2021/11/24 09:17:24;;;;;;;2.47;0.80;;;22.80;37.10;;;;;;5027936;28;20039;-51
2021/11/24 09:19:50;;;;;;;1.13;0.70;;;22.90;37.10;;;;;;5023699;28;20395;-52
2021/11/24 09:22:17;;;;;;;1.20;0.75;;;22.90;37.00;;;;;;5036806;28;20037;-50
2021/11/24 09:24:43;;;;;;;1.00;0.70;;;22.90;37.00;;;;;;5019767;28;20105;-53
2021/11/24 09:27:16;;;;;;;3.30;0.80;;;23.00;37.00;;;;;;5028249;28;20041;-53
2021/11/24 09:29:43;;;;;;;0.80;0.60;;;23.00;37.00;;;;;;5018846;28;20041;-49
2021/11/24 09:32:10;;;;;;;2.30;0.77;;;23.00;36.90;;;;;;5022045;28;20041;-53
2021/11/24 09:34:36;;;;;;;1.25;0.75;;;23.00;36.90;;;;;;5029446;28;20396;-52
2021/11/24 09:37:02;;;;;;;1.38;0.90;;;23.00;36.90;;;;;;5023508;28;20117;-48
2021/11/24 09:39:28;;;;;;;0.77;0.70;;;23.00;36.80;;;;;;5035696;28;20104;-52
2021/11/24 09:41:56;;;;;;;0.90;0.52;;;23.00;36.80;;;;;;5022559;28;20117;-52
2021/11/24 09:44:22;;;;;;;1.13;0.70;;;23.00;36.80;;;;;;5017831;28;20436;-53
2021/11/24 09:46:50;;;;;;;1.40;0.80;;;23.10;37.50;;;;;;5023997;28;20048;-49
2021/11/24 09:49:18;;;;;;;1.08;0.68;;;23.10;36.90;;;;;;5035974;28;20136;-57
2021/11/24 09:51:45;;;;;;;1.52;0.95;;;23.10;36.80;;;;;;5033533;28;20045;-54
2021/11/24 09:54:13;;;;;;;1.88;1.25;;;23.10;36.80;;;;;;5030397;28;20040;-50
2021/11/24 09:56:40;;;;;;;1.38;1.00;;;23.00;36.80;;;;;;5033321;28;20068;-50
2021/11/24 09:59:07;;;;;;;1.38;1.13;;;23.00;36.90;;;;;;5016871;28;20476;-52
2021/11/24 10:01:33;;;;;;;2.88;1.13;;;22.90;36.90;;;;;;5024404;28;20045;-50
2021/11/24 10:04:00;;;;;;;2.47;1.30;;;22.90;37.00;;;;;;5024937;28;20037;-55
2021/11/24 10:06:27;;;;;;;1.88;1.20;;;22.90;37.10;;;;;;5040500;28;20033;-50
2021/11/24 10:08:54;;;;;;;1.73;1.33;;;22.80;37.20;;;;;;5056549;28;20062;-48
2021/11/24 10:11:20;;;;;;;2.03;1.17;;;22.80;37.30;;;;;;5025659;28;20050;-51
2021/11/24 10:13:50;;;;;;;1.55;1.20;;;22.80;37.40;;;;;;5029018;28;20028;-48
2021/11/24 10:16:25;;;;;;;1.70;1.25;;;22.80;37.50;;;;;;5030134;28;20025;-47
2021/11/24 10:19:11;;;;;;;2.03;1.58;;;22.70;37.50;;;;;;5036225;28;20338;-51
2021/11/24 10:21:56;;;;;;;2.40;1.58;;;22.70;37.50;;;;;;5019967;28;20057;-54
2021/11/24 10:24:35;;;;;;;2.25;1.30;;;22.70;37.60;;;;;;5024102;28;20037;-54
2021/11/24 10:27:04;;;;;;;2.72;1.63;;;22.60;37.60;;;;;;5020425;28;20040;-53
2021/11/24 10:29:30;;;;;;;2.95;1.90;;;22.60;37.70;;;;;;5016599;28;20089;-48
2021/11/24 10:32:00;;;;;;;2.38;1.75;;;22.60;37.70;;;;;;5027165;28;20037;-55
2021/11/24 10:34:30;;;;;;;5.68;1.25;;;22.60;37.80;;;;;;5019234;28;20033;-55
2021/11/24 10:37:16;;;;;;;1.98;1.42;;;22.60;37.80;;;;;;5017048;28;20037;-54
2021/11/24 10:39:55;;;;;;;1.90;1.30;;;22.60;37.70;;;;;;5015795;28;20524;-57
2021/11/24 10:42:25;;;;;;;1.92;0.85;;;22.60;37.80;;;;;;5032177;28;20033;-57
2021/11/24 10:44:54;;;;;;;1.55;0.93;;;22.60;37.80;;;;;;5032092;28;20083;-56
2021/11/24 10:47:21;;;;;;;1.65;1.10;;;22.50;37.80;;;;;;5035059;28;20042;-59
2021/11/24 10:49:53;;;;;;;1.35;1.00;;;22.60;37.90;;;;;;5035476;28;20040;-55
2021/11/24 10:52:26;;;;;;;1.65;1.10;;;22.60;37.80;;;;;;5036491;28;20103;-56
2021/11/24 10:54:55;;;;;;;5.20;0.98;;;22.50;37.80;;;;;;5033051;28;20426;-52
2021/11/24 10:57:22;;;;;;;1.38;0.80;;;22.50;37.70;;;;;;5015666;28;20057;-52
2021/11/24 10:59:48;;;;;;;1.17;0.70;;;22.50;37.70;;;;;;5017361;28;20032;-54
2021/11/24 11:02:27;;;;;;;1.50;0.93;;;22.50;37.70;;;;;;5016760;28;20025;-50
2021/11/24 11:05:07;;;;;;;0.93;0.70;;;22.50;37.70;;;;;;5021146;28;20444;-51
2021/11/24 11:07:36;;;;;;;1.10;0.70;;;22.50;37.70;;;;;;5031184;28;20030;-54
2021/11/24 11:10:14;;;;;;;0.75;0.70;;;22.50;37.70;;;;;;5022092;28;20471;-55
2021/11/24 11:12:43;;;;;;;0.82;0.68;;;22.50;37.60;;;;;;5050842;28;20454;-54
2021/11/24 11:15:28;;;;;;;1.52;0.70;;;22.40;37.60;;;;;;5030611;28;20448;-51
2021/11/24 11:18:00;;;;;;;1.15;0.82;;;22.40;37.60;;;;;;5016008;28;20026;-47
2021/11/24 11:20:33;;;;;;;1.67;0.60;;;22.40;37.70;;;;;;5016233;28;20041;-48
2021/11/24 11:23:09;;;;;;;0.90;0.60;;;22.40;37.70;;;;;;5015352;28;20033;-53
2021/11/24 11:25:40;;;;;;;1.42;0.77;;;22.40;37.60;;;;;;5023649;28;20120;-55
2021/11/24 11:28:07;;;;;;;1.33;0.63;;;22.40;37.70;;;;;;5026810;28;20463;-57
2021/11/24 11:30:34;;;;;;;1.23;0.80;;;22.40;37.60;;;;;;5018888;28;20180;-54
2021/11/24 11:33:00;;;;;;;0.80;0.52;;;22.30;37.60;;;;;;5022753;28;20073;-57
2021/11/24 11:35:27;;;;;;;1.00;0.80;;;22.30;37.60;;;;;;5017174;28;20041;-54
2021/11/24 11:37:53;;;;;;;0.98;0.75;;;22.30;37.60;;;;;;5015301;28;20030;-57
2021/11/24 11:40:20;;;;;;;1.40;0.70;;;22.30;37.60;;;;;;5021914;28;20061;-51
2021/11/24 11:42:49;;;;;;;1.35;0.63;;;22.30;37.60;;;;;;5026049;28;20059;-49
2021/11/24 11:45:18;;;;;;;0.60;0.50;;;22.30;37.60;;;;;;5034505;28;20123;-53
2021/11/24 11:47:56;;;;;;;0.63;0.52;;;22.30;37.60;;;;;;5023171;28;20088;-54
2021/11/24 11:50:48;;;;;;;1.15;0.45;;;22.30;37.50;;;;;;5029057;28;20125;-50
2021/11/24 11:53:18;;;;;;;0.85;0.50;;;22.30;37.50;;;;;;5019182;28;20029;-51
2021/11/24 11:55:46;;;;;;;1.23;0.70;;;22.30;37.60;;;;;;5014010;28;20490;-54
2021/11/24 11:58:32;;;;;;;1.10;0.68;;;22.30;37.60;;;;;;5023839;28;20457;-55
2021/11/24 12:01:12;;;;;;;0.55;0.45;;;22.30;37.50;;;;;;5027159;28;20108;-53
2021/11/24 12:04:05;;;;;;;0.65;0.55;;;22.30;37.50;;;;;;5026390;28;20305;-55
2021/11/24 12:06:39;;;;;;;0.73;0.50;;;22.30;37.50;;;;;;5028790;28;20033;-49
2021/11/24 12:09:13;;;;;;;1.00;0.50;;;22.30;37.60;;;;;;5024803;28;20053;-52
2021/11/24 12:11:58;;;;;;;;;;;22.20;37.50;;;;;;5028721;28;20037;-56
2021/11/24 12:14:42;;;;;;;0.77;0.70;;;22.20;37.60;;;;;;5016971;28;19923;-52
2021/11/24 12:17:33;;;;;;;0.80;0.73;;;22.10;37.50;;;;;;5016698;28;20122;-57
2021/11/24 12:20:03;;;;;;;0.90;0.77;;;22.10;37.60;;;;;;5019632;28;20380;-51
2021/11/24 12:23:04;;;;;;;1.05;0.70;;;22.10;37.70;;;;;;5023506;28;20104;-53
2021/11/24 12:25:30;;;;;;;0.82;0.80;;;22.10;37.80;;;;;;5026403;28;20428;-51
2021/11/24 12:28:01;;;;;;;0.73;0.60;;;22.00;37.80;;;;;;5020954;28;20372;-51
2021/11/24 12:30:39;;;;;;;1.52;0.65;;;22.00;37.90;;;;;;5023154;28;20377;-50
2021/11/24 12:33:07;;;;;;;1.10;0.95;;;21.90;37.80;;;;;;5019575;28;20042;-54
2021/11/24 12:35:35;;;;;;;1.20;0.80;;;21.90;37.90;;;;;;5017607;28;20098;-54
2021/11/24 12:38:03;;;;;;;1.83;0.63;;;21.90;37.90;;;;;;5022745;28;20108;-53
2021/11/24 12:40:32;;;;;;;1.10;0.80;;;21.90;37.90;;;;;;5027375;28;20048;-48
2021/11/24 12:42:59;;;;;;;1.70;1.08;;;21.80;37.80;;;;;;5030617;28;20464;-48
2021/11/24 12:45:26;;;;;;;1.30;0.90;;;21.80;37.80;;;;;;5028140;28;20049;-55
2021/11/24 12:48:10;;;;;;;0.80;0.73;;;21.80;37.90;;;;;;5027816;28;20077;-51
2021/11/24 12:50:36;;;;;;;1.50;1.08;;;21.80;37.90;;;;;;5027265;28;20057;-55
2021/11/24 12:53:06;;;;;;;2.28;1.00;;;21.80;38.10;;;;;;5030221;28;20352;-53